Terminal Aerodrome Forecast
Issued by NWS Pittsburgh, PA

Current Version | Previous Version | Graphics & Text | Print | Product List | Glossary On
Versions: 1 2 3 4 5 6 7 8 9 10 11 12 13 14 15 16 17 18 19 20 21 22 23 24 25 26 27 28 29 30
195
FTUS41 KPBZ 180854 AAA
TAFPIT
TAF AMD
KPIT 180854Z 1809/1912 15005KT P6SM -RA OVC050 WS020/22045KT
     FM181200 18008KT 4SM -RA BR OVC035 WS020/22040KT
     FM181400 19010KT 3SM -RA OVC015
     FM181900 19012G22KT P6SM -SHRA OVC035
     FM190100 20015G25KT 3SM SHRA OVC035
     FM190400 27020G30KT 5SM -SHRA OVC015
     FM190900 29020G30KT P6SM -SHRA OVC020=

USA.gov is the U.S. government's official web portal to all federal, state and local government web resources and services.